sensor_id;sensor_type;location;lat;lon;timestamp;pressure;altitude;pressure_sealevel;temperature;humidity
23016;BME280;11674;52.428;13.584;2023-05-21T00:01:19;101716.25;;;18.01;56.75
23016;BME280;11674;52.428;13.584;2023-05-21T00:06:26;101704.59;;;17.94;56.91
23016;BME280;11674;52.428;13.584;2023-05-21T00:11:33;101708.38;;;17.90;56.82
23016;BME280;11674;52.428;13.584;2023-05-21T00:16:40;101698.72;;;17.82;57.18
23016;BME280;11674;52.428;13.584;2023-05-21T00:21:47;101705.19;;;17.83;57.25
23016;BME280;11674;52.428;13.584;2023-05-21T00:26:54;101701.72;;;17.86;57.56
23016;BME280;11674;52.428;13.584;2023-05-21T00:32:01;101691.44;;;17.81;57.98
23016;BME280;11674;52.428;13.584;2023-05-21T00:37:08;101695.72;;;17.79;57.70
23016;BME280;11674;52.428;13.584;2023-05-21T00:42:15;101684.59;;;17.74;58.33
23016;BME280;11674;52.428;13.584;2023-05-21T00:47:23;101682.75;;;17.69;58.18
23016;BME280;11674;52.428;13.584;2023-05-21T00:52:30;101673.28;;;17.65;58.28
23016;BME280;11674;52.428;13.584;2023-05-21T00:57:38;101664.47;;;17.58;58.42
23016;BME280;11674;52.428;13.584;2023-05-21T01:02:45;101664.91;;;17.52;58.46
23016;BME280;11674;52.428;13.584;2023-05-21T01:07:52;101666.66;;;17.48;58.87
23016;BME280;11674;52.428;13.584;2023-05-21T01:12:59;101656.09;;;17.45;58.74
23016;BME280;11674;52.428;13.584;2023-05-21T01:18:06;101657.56;;;17.42;58.72
23016;BME280;11674;52.428;13.584;2023-05-21T01:23:18;101654.63;;;17.34;59.08
23016;BME280;11674;52.428;13.584;2023-05-21T01:28:25;101655.22;;;17.31;59.36
23016;BME280;11674;52.428;13.584;2023-05-21T01:33:42;101658.16;;;17.26;59.16
23016;BME280;11674;52.428;13.584;2023-05-21T01:38:59;101671.13;;;17.22;59.38
23016;BME280;11674;52.428;13.584;2023-05-21T01:44:07;101665.97;;;17.15;59.31
23016;BME280;11674;52.428;13.584;2023-05-21T01:49:16;101657.44;;;17.07;59.53
23016;BME280;11674;52.428;13.584;2023-05-21T01:54:23;101652.84;;;16.97;59.93
23016;BME280;11674;52.428;13.584;2023-05-21T01:59:30;101649.34;;;16.92;59.74
23016;BME280;11674;52.428;13.584;2023-05-21T02:04:37;101647.78;;;16.86;60.22
23016;BME280;11674;52.428;13.584;2023-05-21T02:09:46;101640.94;;;16.78;60.22
23016;BME280;11674;52.428;13.584;2023-05-21T02:14:53;101641.84;;;16.74;60.50
23016;BME280;11674;52.428;13.584;2023-05-21T02:20:00;101641.94;;;16.69;60.36
23016;BME280;11674;52.428;13.584;2023-05-21T02:25:08;101643.72;;;16.65;60.50
23016;BME280;11674;52.428;13.584;2023-05-21T02:30:15;101646.31;;;16.61;60.76
23016;BME280;11674;52.428;13.584;2023-05-21T02:35:22;101640.47;;;16.58;60.92
23016;BME280;11674;52.428;13.584;2023-05-21T02:40:29;101647.84;;;16.54;60.99
23016;BME280;11674;52.428;13.584;2023-05-21T02:45:36;101645.13;;;16.49;61.06
23016;BME280;11674;52.428;13.584;2023-05-21T02:50:43;101636.72;;;16.49;61.30
23016;BME280;11674;52.428;13.584;2023-05-21T02:55:50;101628.94;;;16.46;61.51
23016;BME280;11674;52.428;13.584;2023-05-21T03:00:57;101635.69;;;16.45;61.43
23016;BME280;11674;52.428;13.584;2023-05-21T03:06:04;101626.13;;;16.46;61.52
23016;BME280;11674;52.428;13.584;2023-05-21T03:11:11;101625.81;;;16.47;61.92
23016;BME280;11674;52.428;13.584;2023-05-21T03:16:18;101622.72;;;16.49;61.86
23016;BME280;11674;52.428;13.584;2023-05-21T03:21:25;101619.59;;;16.50;62.11
23016;BME280;11674;52.428;13.584;2023-05-21T03:26:32;101622.84;;;16.57;62.14
23016;BME280;11674;52.428;13.584;2023-05-21T03:31:39;101618.59;;;16.60;62.31
23016;BME280;11674;52.428;13.584;2023-05-21T03:36:48;101626.25;;;16.68;62.53
23016;BME280;11674;52.428;13.584;2023-05-21T03:41:55;101626.72;;;16.75;62.45
23016;BME280;11674;52.428;13.584;2023-05-21T03:47:12;101625.97;;;16.83;62.84
23016;BME280;11674;52.428;13.584;2023-05-21T03:52:20;101634.19;;;16.93;62.69
23016;BME280;11674;52.428;13.584;2023-05-21T03:57:28;101626.06;;;17.05;63.16
23016;BME280;11674;52.428;13.584;2023-05-21T04:02:35;101628.03;;;17.18;63.02
23016;BME280;11674;52.428;13.584;2023-05-21T04:07:42;101622.06;;;17.33;62.87
23016;BME280;11674;52.428;13.584;2023-05-21T04:12:49;101614.47;;;17.60;63.18
23016;BME280;11674;52.428;13.584;2023-05-21T04:17:56;101623.88;;;18.00;63.16
23016;BME280;11674;52.428;13.584;2023-05-21T04:23:03;101635.06;;;18.35;63.29
23016;BME280;11674;52.428;13.584;2023-05-21T04:28:10;101635.78;;;18.71;62.90
23016;BME280;11674;52.428;13.584;2023-05-21T04:33:17;101637.22;;;18.99;62.80
23016;BME280;11674;52.428;13.584;2023-05-21T04:38:24;101635.94;;;19.14;62.25
23016;BME280;11674;52.428;13.584;2023-05-21T04:43:38;101634.97;;;19.10;62.49
23016;BME280;11674;52.428;13.584;2023-05-21T04:48:48;101637.41;;;19.11;62.12
23016;BME280;11674;52.428;13.584;2023-05-21T04:53:56;101631.63;;;19.08;62.16
23016;BME280;11674;52.428;13.584;2023-05-21T04:59:03;101631.94;;;19.06;62.11
23016;BME280;11674;52.428;13.584;2023-05-21T05:04:10;101638.44;;;19.15;62.13
23016;BME280;11674;52.428;13.584;2023-05-21T05:09:17;101632.72;;;19.29;62.14
23016;BME280;11674;52.428;13.584;2023-05-21T05:14:24;101639.50;;;19.28;61.97
23016;BME280;11674;52.428;13.584;2023-05-21T05:19:31;101641.69;;;19.39;61.87
23016;BME280;11674;52.428;13.584;2023-05-21T05:24:38;101634.59;;;19.50;61.68
23016;BME280;11674;52.428;13.584;2023-05-21T05:29:46;101638.59;;;19.66;61.62
23016;BME280;11674;52.428;13.584;2023-05-21T05:34:53;101630.13;;;19.83;61.44
23016;BME280;11674;52.428;13.584;2023-05-21T05:40:00;101636.94;;;19.91;61.24
23016;BME280;11674;52.428;13.584;2023-05-21T05:45:07;101645.69;;;20.06;61.02
23016;BME280;11674;52.428;13.584;2023-05-21T05:50:15;101638.97;;;20.16;61.01
23016;BME280;11674;52.428;13.584;2023-05-21T05:55:22;101629.97;;;20.22;61.00
23016;BME280;11674;52.428;13.584;2023-05-21T06:00:29;101638.06;;;20.41;60.60
23016;BME280;11674;52.428;13.584;2023-05-21T06:05:37;101629.06;;;20.64;60.71
23016;BME280;11674;52.428;13.584;2023-05-21T06:10:44;101622.38;;;20.77;60.27
23016;BME280;11674;52.428;13.584;2023-05-21T06:15:52;101615.91;;;20.77;60.18
23016;BME280;11674;52.428;13.584;2023-05-21T06:20:59;101618.69;;;20.85;60.25
23016;BME280;11674;52.428;13.584;2023-05-21T06:26:06;101621.69;;;20.89;59.92
23016;BME280;11674;52.428;13.584;2023-05-21T06:31:14;101618.31;;;21.04;59.82
23016;BME280;11674;52.428;13.584;2023-05-21T06:36:22;101611.94;;;21.15;59.27
23016;BME280;11674;52.428;13.584;2023-05-21T06:41:30;101611.00;;;21.32;59.50
23016;BME280;11674;52.428;13.584;2023-05-21T06:46:54;101611.50;;;21.34;59.29
23016;BME280;11674;52.428;13.584;2023-05-21T06:52:01;101609.16;;;21.36;59.12
23016;BME280;11674;52.428;13.584;2023-05-21T06:57:09;101611.63;;;21.37;58.67
23016;BME280;11674;52.428;13.584;2023-05-21T07:02:16;101609.41;;;21.43;58.62
23016;BME280;11674;52.428;13.584;2023-05-21T07:07:23;101618.81;;;21.55;58.62
23016;BME280;11674;52.428;13.584;2023-05-21T07:12:30;101619.94;;;21.63;58.38
23016;BME280;11674;52.428;13.584;2023-05-21T07:17:38;101617.09;;;21.63;58.03
23016;BME280;11674;52.428;13.584;2023-05-21T07:22:45;101616.63;;;21.61;58.10
23016;BME280;11674;52.428;13.584;2023-05-21T07:27:52;101616.50;;;21.78;58.03
23016;BME280;11674;52.428;13.584;2023-05-21T07:32:59;101608.34;;;21.97;57.74
23016;BME280;11674;52.428;13.584;2023-05-21T07:38:06;101609.75;;;22.11;57.74
23016;BME280;11674;52.428;13.584;2023-05-21T07:43:13;101613.91;;;22.26;57.17
23016;BME280;11674;52.428;13.584;2023-05-21T07:48:20;101594.44;;;22.45;56.86
23016;BME280;11674;52.428;13.584;2023-05-21T07:53:30;101592.34;;;22.66;56.39
23016;BME280;11674;52.428;13.584;2023-05-21T07:58:41;101596.53;;;22.80;56.15
23016;BME280;11674;52.428;13.584;2023-05-21T08:03:49;101588.50;;;22.94;55.71
23016;BME280;11674;52.428;13.584;2023-05-21T08:08:56;101595.84;;;23.19;55.68
23016;BME280;11674;52.428;13.584;2023-05-21T08:14:03;101584.25;;;23.36;55.12
23016;BME280;11674;52.428;13.584;2023-05-21T08:19:10;101594.81;;;23.63;55.00
23016;BME280;11674;52.428;13.584;2023-05-21T08:24:17;101590.91;;;23.80;54.67
23016;BME280;11674;52.428;13.584;2023-05-21T08:29:24;101595.34;;;23.93;54.34
23016;BME280;11674;52.428;13.584;2023-05-21T08:34:31;101586.03;;;24.20;54.08
23016;BME280;11674;52.428;13.584;2023-05-21T08:40:01;101577.41;;;24.44;53.55
23016;BME280;11674;52.428;13.584;2023-05-21T08:45:23;101583.19;;;24.63;53.26
23016;BME280;11674;52.428;13.584;2023-05-21T08:50:35;101575.44;;;24.91;52.68
23016;BME280;11674;52.428;13.584;2023-05-21T08:55:50;101569.81;;;25.10;52.11
23016;BME280;11674;52.428;13.584;2023-05-21T09:01:08;101567.69;;;25.38;51.68
23016;BME280;11674;52.428;13.584;2023-05-21T09:06:19;101572.28;;;25.61;51.19
23016;BME280;11674;52.428;13.584;2023-05-21T09:11:28;101562.09;;;25.95;50.45
23016;BME280;11674;52.428;13.584;2023-05-21T09:16:35;101567.84;;;26.17;49.80
23016;BME280;11674;52.428;13.584;2023-05-21T09:21:52;101569.38;;;26.34;49.38
23016;BME280;11674;52.428;13.584;2023-05-21T09:27:00;101569.72;;;26.51;49.03
23016;BME280;11674;52.428;13.584;2023-05-21T09:32:08;101550.03;;;26.62;48.15
23016;BME280;11674;52.428;13.584;2023-05-21T09:37:15;101560.53;;;26.80;48.25
23016;BME280;11674;52.428;13.584;2023-05-21T09:42:22;101550.88;;;27.11;47.31
23016;BME280;11674;52.428;13.584;2023-05-21T09:47:29;101546.75;;;27.31;46.63
23016;BME280;11674;52.428;13.584;2023-05-21T09:52:37;101533.56;;;27.49;46.13
23016;BME280;11674;52.428;13.584;2023-05-21T09:57:46;101534.53;;;27.60;45.19
23016;BME280;11674;52.428;13.584;2023-05-21T10:02:54;101531.56;;;27.79;44.69
23016;BME280;11674;52.428;13.584;2023-05-21T10:08:02;101530.78;;;27.82;43.98
23016;BME280;11674;52.428;13.584;2023-05-21T10:13:11;101522.19;;;27.78;43.82
23016;BME280;11674;52.428;13.584;2023-05-21T10:18:21;101517.91;;;27.95;43.42
23016;BME280;11674;52.428;13.584;2023-05-21T10:23:28;101512.00;;;28.14;42.78
23016;BME280;11674;52.428;13.584;2023-05-21T10:28:35;101505.53;;;28.17;42.09
23016;BME280;11674;52.428;13.584;2023-05-21T10:33:42;101504.72;;;28.20;42.15
23016;BME280;11674;52.428;13.584;2023-05-21T10:38:49;101491.97;;;28.47;41.45
23016;BME280;11674;52.428;13.584;2023-05-21T10:44:14;101486.09;;;28.73;40.79
23016;BME280;11674;52.428;13.584;2023-05-21T11:00:25;101492.06;;;29.65;39.26
23016;BME280;11674;52.428;13.584;2023-05-21T11:10:50;101484.00;;;29.92;37.54
23016;BME280;11674;52.428;13.584;2023-05-21T11:26:14;101480.00;;;30.21;37.07
23016;BME280;11674;52.428;13.584;2023-05-21T11:36:28;101472.56;;;30.06;36.48
23016;BME280;11674;52.428;13.584;2023-05-21T11:41:57;101469.63;;;29.88;36.34
23016;BME280;11674;52.428;13.584;2023-05-21T11:47:05;101470.47;;;29.89;36.29
23016;BME280;11674;52.428;13.584;2023-05-21T11:52:13;101470.88;;;29.91;35.97
23016;BME280;11674;52.428;13.584;2023-05-21T11:57:21;101466.00;;;29.95;35.82
23016;BME280;11674;52.428;13.584;2023-05-21T12:02:31;101459.47;;;30.05;35.80
23016;BME280;11674;52.428;13.584;2023-05-21T12:07:38;101472.66;;;30.55;35.28
23016;BME280;11674;52.428;13.584;2023-05-21T12:12:45;101472.66;;;31.07;34.39
23016;BME280;11674;52.428;13.584;2023-05-21T12:17:53;101453.31;;;31.50;34.30
23016;BME280;11674;52.428;13.584;2023-05-21T12:23:00;101461.03;;;31.74;34.18
23016;BME280;11674;52.428;13.584;2023-05-21T12:28:11;101449.94;;;31.72;34.23
23016;BME280;11674;52.428;13.584;2023-05-21T12:33:18;101444.56;;;32.50;33.71
23016;BME280;11674;52.428;13.584;2023-05-21T12:38:29;101443.28;;;32.98;32.48
23016;BME280;11674;52.428;13.584;2023-05-21T12:43:36;101447.13;;;32.85;32.56
23016;BME280;11674;52.428;13.584;2023-05-21T12:48:53;101422.03;;;32.89;31.75
23016;BME280;11674;52.428;13.584;2023-05-21T12:53:59;101435.97;;;32.46;32.00
23016;BME280;11674;52.428;13.584;2023-05-21T12:59:11;101424.47;;;32.46;31.72
23016;BME280;11674;52.428;13.584;2023-05-21T13:04:18;101433.81;;;31.99;31.94
23016;BME280;11674;52.428;13.584;2023-05-21T13:09:25;101438.75;;;31.95;31.69
23016;BME280;11674;52.428;13.584;2023-05-21T13:14:32;101433.56;;;32.38;31.39
23016;BME280;11674;52.428;13.584;2023-05-21T13:19:39;101421.25;;;32.37;31.27
23016;BME280;11674;52.428;13.584;2023-05-21T13:24:46;101423.00;;;32.72;31.29
23016;BME280;11674;52.428;13.584;2023-05-21T13:29:53;101416.91;;;32.63;31.09
23016;BME280;11674;52.428;13.584;2023-05-21T13:35:00;101418.69;;;32.50;31.21
23016;BME280;11674;52.428;13.584;2023-05-21T13:40:09;101404.31;;;32.50;30.96
23016;BME280;11674;52.428;13.584;2023-05-21T13:45:18;101403.84;;;32.55;31.36
23016;BME280;11674;52.428;13.584;2023-05-21T13:50:26;101407.78;;;32.71;30.99
23016;BME280;11674;52.428;13.584;2023-05-21T13:55:33;101406.09;;;32.81;30.84
23016;BME280;11674;52.428;13.584;2023-05-21T14:00:40;101403.97;;;33.22;30.20
23016;BME280;11674;52.428;13.584;2023-05-21T14:05:47;101404.84;;;33.19;30.42
23016;BME280;11674;52.428;13.584;2023-05-21T14:10:54;101404.69;;;32.52;29.98
23016;BME280;11674;52.428;13.584;2023-05-21T14:16:01;101404.06;;;32.23;30.05
23016;BME280;11674;52.428;13.584;2023-05-21T14:21:08;101399.22;;;32.17;29.99
23016;BME280;11674;52.428;13.584;2023-05-21T14:26:15;101398.97;;;31.90;30.47
23016;BME280;11674;52.428;13.584;2023-05-21T14:31:22;101399.56;;;31.54;30.87
23016;BME280;11674;52.428;13.584;2023-05-21T14:36:29;101402.09;;;31.38;30.66
23016;BME280;11674;52.428;13.584;2023-05-21T14:41:37;101406.66;;;31.18;30.90
23016;BME280;11674;52.428;13.584;2023-05-21T14:46:44;101412.00;;;31.23;30.90
23016;BME280;11674;52.428;13.584;2023-05-21T14:51:51;101405.44;;;31.29;30.97
23016;BME280;11674;52.428;13.584;2023-05-21T14:56:58;101412.00;;;31.16;31.28
23016;BME280;11674;52.428;13.584;2023-05-21T15:02:05;101402.56;;;31.12;31.41
23016;BME280;11674;52.428;13.584;2023-05-21T15:07:12;101401.38;;;31.06;31.36
23016;BME280;11674;52.428;13.584;2023-05-21T15:12:19;101393.59;;;30.96;31.11
23016;BME280;11674;52.428;13.584;2023-05-21T15:17:26;101389.97;;;30.64;31.53
23016;BME280;11674;52.428;13.584;2023-05-21T15:22:33;101392.41;;;30.79;31.33
23016;BME280;11674;52.428;13.584;2023-05-21T15:27:40;101389.50;;;31.00;31.25
23016;BME280;11674;52.428;13.584;2023-05-21T15:32:47;101384.63;;;30.94;31.06
23016;BME280;11674;52.428;13.584;2023-05-21T15:37:54;101382.56;;;30.87;31.22
23016;BME280;11674;52.428;13.584;2023-05-21T15:43:01;101394.44;;;30.86;31.34
23016;BME280;11674;52.428;13.584;2023-05-21T15:48:08;101396.50;;;30.89;31.01
23016;BME280;11674;52.428;13.584;2023-05-21T15:53:15;101388.75;;;30.58;31.30
23016;BME280;11674;52.428;13.584;2023-05-21T15:58:22;101391.59;;;30.44;31.57
23016;BME280;11674;52.428;13.584;2023-05-21T16:03:29;101385.47;;;30.24;31.28
23016;BME280;11674;52.428;13.584;2023-05-21T16:08:36;101385.88;;;30.19;31.54
23016;BME280;11674;52.428;13.584;2023-05-21T16:13:43;101377.69;;;30.18;31.73
23016;BME280;11674;52.428;13.584;2023-05-21T16:18:50;101369.03;;;29.93;31.61
23016;BME280;11674;52.428;13.584;2023-05-21T16:23:57;101368.59;;;29.70;31.83
23016;BME280;11674;52.428;13.584;2023-05-21T16:29:04;101367.41;;;29.82;31.60
23016;BME280;11674;52.428;13.584;2023-05-21T16:34:11;101365.34;;;29.75;31.63
23016;BME280;11674;52.428;13.584;2023-05-21T16:39:18;101370.22;;;29.68;31.38
23016;BME280;11674;52.428;13.584;2023-05-21T16:44:25;101366.13;;;29.58;31.54
23016;BME280;11674;52.428;13.584;2023-05-21T16:49:32;101371.47;;;29.77;31.59
23016;BME280;11674;52.428;13.584;2023-05-21T16:54:39;101367.41;;;29.89;31.67
23016;BME280;11674;52.428;13.584;2023-05-21T16:59:46;101371.50;;;29.95;31.44
23016;BME280;11674;52.428;13.584;2023-05-21T17:04:53;101375.59;;;29.90;31.82
23016;BME280;11674;52.428;13.584;2023-05-21T17:10:00;101383.34;;;29.83;31.28
23016;BME280;11674;52.428;13.584;2023-05-21T17:15:07;101375.06;;;29.53;31.85
23016;BME280;11674;52.428;13.584;2023-05-21T17:20:14;101386.81;;;29.24;31.62
23016;BME280;11674;52.428;13.584;2023-05-21T17:25:21;101389.50;;;28.96;32.24
23016;BME280;11674;52.428;13.584;2023-05-21T17:30:28;101392.22;;;28.75;31.98
23016;BME280;11674;52.428;13.584;2023-05-21T17:35:35;101383.16;;;28.62;32.09
23016;BME280;11674;52.428;13.584;2023-05-21T17:40:42;101390.81;;;28.48;32.48
23016;BME280;11674;52.428;13.584;2023-05-21T17:45:49;101388.13;;;28.25;32.26
23016;BME280;11674;52.428;13.584;2023-05-21T17:50:56;101393.28;;;28.09;32.49
23016;BME280;11674;52.428;13.584;2023-05-21T17:56:04;101384.56;;;27.95;32.76
23016;BME280;11674;52.428;13.584;2023-05-21T18:01:11;101399.84;;;27.77;32.70
23016;BME280;11674;52.428;13.584;2023-05-21T18:06:18;101393.59;;;27.64;32.90
23016;BME280;11674;52.428;13.584;2023-05-21T18:11:25;101402.00;;;27.50;33.12
23016;BME280;11674;52.428;13.584;2023-05-21T18:16:32;101405.91;;;27.39;32.96
23016;BME280;11674;52.428;13.584;2023-05-21T18:21:39;101412.25;;;27.25;33.03
23016;BME280;11674;52.428;13.584;2023-05-21T18:26:47;101407.19;;;27.15;33.37
23016;BME280;11674;52.428;13.584;2023-05-21T18:31:54;101419.59;;;27.00;33.39
23016;BME280;11674;52.428;13.584;2023-05-21T18:37:01;101422.38;;;26.93;33.33
23016;BME280;11674;52.428;13.584;2023-05-21T18:42:08;101419.38;;;26.83;33.46
23016;BME280;11674;52.428;13.584;2023-05-21T18:47:15;101426.06;;;26.68;33.57
23016;BME280;11674;52.428;13.584;2023-05-21T18:52:22;101417.72;;;26.56;33.79
23016;BME280;11674;52.428;13.584;2023-05-21T18:57:29;101426.78;;;26.42;33.89
23016;BME280;11674;52.428;13.584;2023-05-21T19:02:36;101419.66;;;26.29;33.88
23016;BME280;11674;52.428;13.584;2023-05-21T19:07:43;101423.53;;;26.18;34.23
23016;BME280;11674;52.428;13.584;2023-05-21T19:12:50;101433.09;;;26.06;34.34
23016;BME280;11674;52.428;13.584;2023-05-21T19:17:57;101435.72;;;25.96;34.27
23016;BME280;11674;52.428;13.584;2023-05-21T19:23:04;101457.41;;;25.85;34.18
23016;BME280;11674;52.428;13.584;2023-05-21T19:28:11;101451.16;;;25.76;34.73
23016;BME280;11674;52.428;13.584;2023-05-21T19:33:18;101468.06;;;25.69;34.53
23016;BME280;11674;52.428;13.584;2023-05-21T19:38:25;101468.28;;;25.60;34.79
23016;BME280;11674;52.428;13.584;2023-05-21T19:43:32;101474.28;;;25.55;34.88
23016;BME280;11674;52.428;13.584;2023-05-21T19:48:39;101470.81;;;25.46;34.66
23016;BME280;11674;52.428;13.584;2023-05-21T19:53:46;101470.31;;;25.41;35.06
23016;BME280;11674;52.428;13.584;2023-05-21T19:59:00;101464.94;;;25.36;34.87
23016;BME280;11674;52.428;13.584;2023-05-21T20:04:23;101471.66;;;25.28;34.95
23016;BME280;11674;52.428;13.584;2023-05-21T20:09:30;101475.25;;;25.25;35.21
23016;BME280;11674;52.428;13.584;2023-05-21T20:14:37;101473.38;;;25.17;35.05
23016;BME280;11674;52.428;13.584;2023-05-21T20:19:45;101461.78;;;25.06;35.48
23016;BME280;11674;52.428;13.584;2023-05-21T20:24:51;101471.31;;;24.98;35.25
23016;BME280;11674;52.428;13.584;2023-05-21T20:29:58;101466.69;;;24.90;35.37
23016;BME280;11674;52.428;13.584;2023-05-21T20:35:06;101470.47;;;24.79;35.26
23016;BME280;11674;52.428;13.584;2023-05-21T20:40:13;101472.28;;;24.71;35.69
23016;BME280;11674;52.428;13.584;2023-05-21T20:45:20;101474.16;;;24.64;35.44
23016;BME280;11674;52.428;13.584;2023-05-21T20:50:27;101480.81;;;24.56;35.69
23016;BME280;11674;52.428;13.584;2023-05-21T20:55:34;101481.44;;;24.49;35.62
23016;BME280;11674;52.428;13.584;2023-05-21T21:00:41;101482.38;;;24.38;35.54
23016;BME280;11674;52.428;13.584;2023-05-21T21:05:48;101487.84;;;24.31;36.23
23016;BME280;11674;52.428;13.584;2023-05-21T21:10:55;101489.78;;;24.27;36.00
23016;BME280;11674;52.428;13.584;2023-05-21T21:16:03;101484.38;;;24.22;35.73
23016;BME280;11674;52.428;13.584;2023-05-21T21:21:11;101483.81;;;24.16;36.07
23016;BME280;11674;52.428;13.584;2023-05-21T21:26:18;101486.91;;;24.11;36.58
23016;BME280;11674;52.428;13.584;2023-05-21T21:31:24;101487.53;;;24.05;36.34
23016;BME280;11674;52.428;13.584;2023-05-21T21:36:31;101489.38;;;23.97;36.58
23016;BME280;11674;52.428;13.584;2023-05-21T21:41:38;101493.19;;;23.89;36.60
23016;BME280;11674;52.428;13.584;2023-05-21T21:46:45;101494.97;;;23.82;36.95
23016;BME280;11674;52.428;13.584;2023-05-21T21:51:52;101490.91;;;23.67;37.17
23016;BME280;11674;52.428;13.584;2023-05-21T21:56:59;101498.28;;;23.56;37.44
23016;BME280;11674;52.428;13.584;2023-05-21T22:02:06;101491.47;;;23.45;37.58
23016;BME280;11674;52.428;13.584;2023-05-21T22:07:13;101495.72;;;23.39;37.64
23016;BME280;11674;52.428;13.584;2023-05-21T22:12:20;101500.25;;;23.28;37.93
23016;BME280;11674;52.428;13.584;2023-05-21T22:17:27;101494.25;;;23.18;38.12
23016;BME280;11674;52.428;13.584;2023-05-21T22:22:35;101500.72;;;23.06;38.13
23016;BME280;11674;52.428;13.584;2023-05-21T22:27:42;101494.81;;;22.99;38.71
23016;BME280;11674;52.428;13.584;2023-05-21T22:32:48;101495.41;;;22.93;38.81
23016;BME280;11674;52.428;13.584;2023-05-21T22:37:55;101491.44;;;22.94;38.58
23016;BME280;11674;52.428;13.584;2023-05-21T22:43:02;101493.31;;;22.90;38.90
23016;BME280;11674;52.428;13.584;2023-05-21T22:48:09;101502.03;;;22.85;39.20
23016;BME280;11674;52.428;13.584;2023-05-21T22:53:16;101505.56;;;22.82;39.12
23016;BME280;11674;52.428;13.584;2023-05-21T22:58:23;101503.34;;;22.75;39.32
23016;BME280;11674;52.428;13.584;2023-05-21T23:03:30;101492.97;;;22.67;39.43
23016;BME280;11674;52.428;13.584;2023-05-21T23:08:37;101487.66;;;22.66;39.30
23016;BME280;11674;52.428;13.584;2023-05-21T23:13:44;101495.22;;;22.62;39.62
23016;BME280;11674;52.428;13.584;2023-05-21T23:18:52;101492.13;;;22.55;39.86
23016;BME280;11674;52.428;13.584;2023-05-21T23:23:59;101505.34;;;22.51;40.07
23016;BME280;11674;52.428;13.584;2023-05-21T23:29:06;101498.41;;;22.48;39.62
23016;BME280;11674;52.428;13.584;2023-05-21T23:34:13;101503.56;;;22.46;39.92
23016;BME280;11674;52.428;13.584;2023-05-21T23:39:20;101495.28;;;22.41;40.04
23016;BME280;11674;52.428;13.584;2023-05-21T23:44:27;101489.72;;;22.33;40.15
23016;BME280;11674;52.428;13.584;2023-05-21T23:49:34;101489.16;;;22.27;40.21
23016;BME280;11674;52.428;13.584;2023-05-21T23:54:41;101494.31;;;22.25;40.31
23016;BME280;11674;52.428;13.584;2023-05-21T23:59:48;101490.91;;;22.20;40.30
